createdAt,value
2022-12-01T00:00:56.467Z,-0.75
2022-12-01T00:03:58.897Z,-0.70
2022-12-01T00:07:05.888Z,-0.82
2022-12-01T00:10:26.322Z,-0.85
2022-12-01T00:13:28.946Z,-0.97
2022-12-01T00:16:31.896Z,-0.92
2022-12-01T00:19:34.397Z,-0.92
2022-12-01T00:22:36.791Z,-0.84
2022-12-01T00:25:39.154Z,-0.82
2022-12-01T00:28:42.122Z,-0.86
2022-12-01T00:31:44.612Z,-0.87
2022-12-01T00:34:47.052Z,-0.97
2022-12-01T00:37:49.490Z,-1.07
2022-12-01T00:40:53.275Z,-1.11
2022-12-01T00:43:55.727Z,-1.14
2022-12-01T00:46:58.107Z,-1.20
2022-12-01T00:50:00.507Z,-1.21
2022-12-01T00:53:03.024Z,-1.31
2022-12-01T00:56:05.596Z,-1.17
2022-12-01T00:59:07.956Z,-1.11
2022-12-01T01:02:10.763Z,-1.04
2022-12-01T01:05:13.325Z,-1.15
2022-12-01T01:08:15.704Z,-1.19
2022-12-01T01:11:18.203Z,-1.06
2022-12-01T01:14:24.169Z,-1.11
2022-12-01T01:17:26.691Z,-1.08
2022-12-01T01:20:29.408Z,-1.14
2022-12-01T01:23:31.891Z,-1.03
2022-12-01T01:26:35.527Z,-0.91
2022-12-01T01:29:38.193Z,-0.92
2022-12-01T01:32:40.625Z,-0.93
2022-12-01T01:35:43.106Z,-0.94
2022-12-01T01:38:46.611Z,-0.90
2022-12-01T01:41:49.090Z,-0.90
2022-12-01T01:44:57.141Z,-0.88
2022-12-01T01:48:00.516Z,-0.91
2022-12-01T01:51:03.757Z,-0.97
2022-12-01T01:54:15.707Z,-1.00
2022-12-01T01:57:30.144Z,-1.03
2022-12-01T02:00:36.400Z,-1.12
2022-12-01T02:03:41.007Z,-1.14
2022-12-01T02:06:43.755Z,-1.19
2022-12-01T02:09:46.761Z,-1.23
2022-12-01T02:13:10.915Z,-1.26
2022-12-01T02:16:32.537Z,-1.28
2022-12-01T02:20:07.903Z,-1.28
2022-12-01T02:23:35.185Z,-1.38
2022-12-01T02:26:52.500Z,-1.50
2022-12-01T02:30:09.153Z,-1.44
2022-12-01T02:33:14.316Z,-1.42
2022-12-01T02:36:22.258Z,-1.41
2022-12-01T02:39:44.746Z,-1.45
2022-12-01T02:43:02.554Z,-1.47
2022-12-01T02:46:18.329Z,-1.46
2022-12-01T02:49:25.995Z,-1.44
2022-12-01T02:52:28.984Z,-1.43
2022-12-01T02:55:31.429Z,-1.43
2022-12-01T02:58:34.047Z,-1.31
2022-12-01T03:01:59.127Z,-1.39
2022-12-01T03:05:10.042Z,-1.40
2022-12-01T03:08:46.153Z,-1.40
2022-12-01T03:12:28.300Z,-1.50
2022-12-01T03:15:43.404Z,-1.53
2022-12-01T03:18:53.508Z,-1.54
2022-12-01T03:22:23.183Z,-1.74
2022-12-01T03:25:28.525Z,-1.81
2022-12-01T03:28:38.115Z,-1.70
2022-12-01T03:31:48.737Z,-1.72
2022-12-01T03:35:00.219Z,-1.66
2022-12-01T03:38:08.267Z,-1.67
2022-12-01T03:41:18.059Z,-1.62
2022-12-01T03:44:29.651Z,-1.61
2022-12-01T03:47:32.920Z,-1.61
2022-12-01T03:51:08.519Z,-1.66
2022-12-01T03:54:29.519Z,-1.75
2022-12-01T03:57:36.243Z,-1.75
2022-12-01T04:00:40.160Z,-1.80
2022-12-01T04:03:45.342Z,-1.79
2022-12-01T04:06:51.007Z,-1.70
2022-12-01T04:09:53.490Z,-1.79
2022-12-01T04:12:59.540Z,-1.85
2022-12-01T04:16:01.997Z,-1.62
2022-12-01T04:19:07.801Z,-1.63
2022-12-01T04:22:10.345Z,-1.36
2022-12-01T04:25:12.879Z,-1.22
2022-12-01T04:28:15.316Z,-1.47
2022-12-01T04:31:18.000Z,-1.53
2022-12-01T04:34:20.603Z,-1.25
2022-12-01T04:37:23.083Z,-1.26
2022-12-01T04:40:25.487Z,-1.27
2022-12-01T04:43:27.901Z,-1.18
2022-12-01T04:46:30.455Z,-1.30
2022-12-01T04:49:33.740Z,-1.29
2022-12-01T04:52:37.512Z,-1.29
2022-12-01T04:55:40.033Z,-1.13
2022-12-01T04:58:42.477Z,-0.92
2022-12-01T05:01:47.024Z,-0.80
2022-12-01T05:04:49.616Z,-0.91
2022-12-01T05:07:52.446Z,-1.05
2022-12-01T05:10:56.494Z,-1.12
2022-12-01T05:13:59.803Z,-1.10
2022-12-01T05:17:02.522Z,-1.08
2022-12-01T05:20:31.565Z,-1.16
2022-12-01T05:23:37.166Z,-1.26
2022-12-01T05:26:40.171Z,-1.20
2022-12-01T05:29:42.836Z,-1.26
2022-12-01T05:32:45.531Z,-1.36
2022-12-01T05:35:48.912Z,-1.33
2022-12-01T05:38:51.629Z,-1.32
2022-12-01T05:41:54.521Z,-1.35
2022-12-01T05:44:56.925Z,-1.39
2022-12-01T05:48:00.842Z,-1.43
2022-12-01T05:51:16.573Z,-1.56
2022-12-01T05:54:19.196Z,-1.65
2022-12-01T05:57:21.592Z,-1.71
2022-12-01T06:00:24.221Z,-1.75
2022-12-01T06:03:26.869Z,-1.89
2022-12-01T06:06:29.346Z,-1.87
2022-12-01T06:09:32.101Z,-1.83
2022-12-01T06:12:34.734Z,-1.83
2022-12-01T06:15:37.466Z,-1.84
2022-12-01T06:18:40.636Z,-1.80
2022-12-01T06:21:43.271Z,-1.76
2022-12-01T06:24:45.710Z,-1.49
2022-12-01T06:27:48.990Z,-1.55
2022-12-01T06:30:51.626Z,-1.53
2022-12-01T06:33:54.232Z,-1.45
2022-12-01T06:36:56.892Z,-1.42
2022-12-01T06:39:59.654Z,-1.23
2022-12-01T06:43:05.641Z,-1.28
2022-12-01T06:46:08.455Z,-1.21
2022-12-01T06:49:12.396Z,-1.29
2022-12-01T06:52:14.940Z,-1.22
2022-12-01T06:55:17.653Z,-1.17
2022-12-01T06:58:20.478Z,-1.01
2022-12-01T07:01:23.644Z,-0.94
2022-12-01T07:04:26.338Z,-0.82
2022-12-01T07:07:28.832Z,-0.77
2022-12-01T07:10:31.496Z,-0.59
2022-12-01T07:13:34.705Z,-0.55
2022-12-01T07:16:37.253Z,-0.45
2022-12-01T07:19:40.708Z,-0.29
2022-12-01T07:22:43.334Z,-0.17
2022-12-01T07:25:45.911Z,-0.02
2022-12-01T07:28:49.034Z,0.11
2022-12-01T07:31:51.651Z,0.19
2022-12-01T07:34:54.133Z,0.36
2022-12-01T07:37:56.920Z,0.45
2022-12-01T07:41:06.990Z,0.70
2022-12-01T07:44:10.828Z,0.79
2022-12-01T07:47:14.747Z,0.86
2022-12-01T07:50:17.351Z,0.97
2022-12-01T07:53:19.912Z,1.08
2022-12-01T07:56:23.266Z,1.20
2022-12-01T07:59:25.743Z,1.30
2022-12-01T08:02:28.844Z,1.44
2022-12-01T08:05:31.341Z,1.63
2022-12-01T08:08:35.394Z,1.79
2022-12-01T08:11:38.059Z,1.88
2022-12-01T08:14:40.531Z,2.01
2022-12-01T08:17:43.033Z,2.10
2022-12-01T08:20:45.586Z,2.14
2022-12-01T08:23:49.086Z,2.19
2022-12-01T08:26:51.680Z,2.21
2022-12-01T08:29:54.130Z,2.26
2022-12-01T08:32:57.807Z,2.42
2022-12-01T08:36:02.903Z,2.51
2022-12-01T08:39:08.106Z,2.59
2022-12-01T08:42:10.572Z,2.66
2022-12-01T08:45:13.638Z,2.75
2022-12-01T08:48:16.087Z,2.83
2022-12-01T08:51:19.177Z,2.83
2022-12-01T08:54:21.930Z,2.97
2022-12-01T08:57:24.467Z,3.05
2022-12-01T09:00:28.856Z,3.09
2022-12-01T09:03:31.981Z,3.17
2022-12-01T09:06:43.671Z,3.28
2022-12-01T09:09:46.485Z,3.39
2022-12-01T09:12:48.979Z,3.49
2022-12-01T09:15:59.606Z,3.61
2022-12-01T09:19:02.828Z,3.65
2022-12-01T09:22:05.597Z,3.64
2022-12-01T09:25:14.662Z,3.69
2022-12-01T09:28:18.172Z,3.76
2022-12-01T09:31:23.447Z,3.84
2022-12-01T09:34:27.338Z,3.85
2022-12-01T09:37:29.785Z,3.93
2022-12-01T09:40:36.771Z,3.96
2022-12-01T09:43:52.578Z,4.08
2022-12-01T09:47:05.534Z,4.03
2022-12-01T09:50:18.898Z,4.13
2022-12-01T09:53:24.830Z,4.18
2022-12-01T09:56:31.114Z,4.24
2022-12-01T09:59:41.734Z,4.29
2022-12-01T10:02:52.884Z,4.45
2022-12-01T10:09:41.120Z,4.60
2022-12-01T10:12:46.941Z,4.69
2022-12-01T10:16:26.522Z,4.64
2022-12-01T10:19:45.135Z,4.79
2022-12-01T10:23:15.166Z,4.97
2022-12-01T10:26:28.892Z,5.03
2022-12-01T10:29:31.620Z,5.02
2022-12-01T10:32:58.341Z,5.03
2022-12-01T10:36:01.288Z,5.09
2022-12-01T10:39:21.348Z,5.24
2022-12-01T10:42:32.033Z,5.36
2022-12-01T10:45:40.203Z,5.40
2022-12-01T10:48:54.968Z,5.34
2022-12-01T10:51:58.692Z,5.44
2022-12-01T10:55:02.236Z,5.46
2022-12-01T10:58:16.514Z,5.47
2022-12-01T11:01:27.629Z,5.45
2022-12-01T11:04:46.532Z,5.44
2022-12-01T11:07:50.126Z,5.56
2022-12-01T11:10:52.825Z,5.59
2022-12-01T11:13:57.859Z,5.74
2022-12-01T11:17:25.741Z,5.78
2022-12-01T11:20:33.057Z,5.84
2022-12-01T11:23:37.968Z,6.08
2022-12-01T11:26:40.938Z,6.12
2022-12-01T11:29:45.964Z,6.16
2022-12-01T11:32:55.288Z,6.23
2022-12-01T11:35:58.160Z,6.27
2022-12-01T11:39:01.855Z,6.20
2022-12-01T11:42:24.649Z,6.32
2022-12-01T11:45:40.338Z,6.68
2022-12-01T11:48:58.341Z,6.83
2022-12-01T11:52:17.694Z,6.79
2022-12-01T11:55:26.243Z,7.26
2022-12-01T11:58:29.113Z,8.09
2022-12-01T12:01:53.709Z,8.28
2022-12-01T12:05:05.291Z,8.25
2022-12-01T12:08:20.249Z,7.56
2022-12-01T12:11:50.040Z,7.25
2022-12-01T12:15:02.607Z,7.42
2022-12-01T12:18:35.670Z,7.80
2022-12-01T12:22:07.280Z,7.80
2022-12-01T12:25:22.935Z,7.80
2022-12-01T12:28:35.476Z,7.57
2022-12-01T12:31:41.096Z,7.17
2022-12-01T12:34:52.900Z,7.92
2022-12-01T12:38:33.248Z,7.73
2022-12-01T12:41:43.150Z,7.93
2022-12-01T12:45:13.533Z,7.91
2022-12-01T12:49:18.572Z,8.04
2022-12-01T12:52:19.590Z,8.20
2022-12-01T12:55:45.438Z,8.47
2022-12-01T12:59:24.594Z,7.90
2022-12-01T13:02:53.187Z,7.85
2022-12-01T13:06:24.900Z,7.66
2022-12-01T13:09:39.424Z,6.96
2022-12-01T13:12:49.495Z,6.86
2022-12-01T13:15:55.412Z,6.40
2022-12-01T13:19:13.425Z,6.21
2022-12-01T13:22:19.668Z,5.99
2022-12-01T13:25:28.306Z,5.86
2022-12-01T13:28:44.153Z,5.89
2022-12-01T13:31:50.899Z,5.90
2022-12-01T13:34:53.876Z,5.68
2022-12-01T13:38:13.136Z,5.53
2022-12-01T13:41:18.680Z,5.31
2022-12-01T13:44:39.835Z,5.21
2022-12-01T13:47:55.531Z,5.03
2022-12-01T13:51:01.570Z,4.91
2022-12-01T13:54:25.901Z,4.82
2022-12-01T13:57:31.868Z,4.78
2022-12-01T14:00:35.038Z,4.80
2022-12-01T14:03:40.782Z,4.69
2022-12-01T14:06:53.205Z,4.79
2022-12-01T14:10:09.634Z,4.73
2022-12-01T14:13:19.499Z,4.61
2022-12-01T14:16:22.659Z,4.55
2022-12-01T14:19:52.278Z,4.48
2022-12-01T14:23:10.807Z,4.40
2022-12-01T14:26:17.642Z,4.22
2022-12-01T14:29:39.285Z,4.09
2022-12-01T14:32:41.963Z,4.01
2022-12-01T14:35:45.460Z,3.92
2022-12-01T14:38:50.007Z,3.84
2022-12-01T14:41:56.866Z,3.68
2022-12-01T14:45:03.371Z,3.63
2022-12-01T14:48:12.590Z,3.49
2022-12-01T14:51:29.961Z,3.31
2022-12-01T14:54:54.095Z,3.22
2022-12-01T14:58:05.996Z,3.17
2022-12-01T15:01:13.983Z,3.10
2022-12-01T15:04:16.614Z,3.20
2022-12-01T15:07:23.145Z,3.20
2022-12-01T15:10:29.913Z,3.19
2022-12-01T15:13:50.682Z,3.15
2022-12-01T15:16:53.383Z,3.21
2022-12-01T15:19:55.831Z,3.26
2022-12-01T15:22:59.003Z,3.13
2022-12-01T15:26:02.153Z,3.04
2022-12-01T15:29:17.835Z,3.15
2022-12-01T15:32:22.675Z,3.02
2022-12-01T15:35:25.529Z,2.99
2022-12-01T15:38:34.440Z,2.97
2022-12-01T15:41:40.462Z,2.88
2022-12-01T15:44:42.849Z,2.82
2022-12-01T15:47:50.361Z,2.98
2022-12-01T15:51:04.270Z,2.97
2022-12-01T15:54:12.114Z,3.09
2022-12-01T15:57:20.175Z,2.91
2022-12-01T16:00:23.168Z,2.81
2022-12-01T16:03:26.247Z,2.80
2022-12-01T16:06:32.433Z,2.75
2022-12-01T16:09:43.377Z,2.49
2022-12-01T16:12:45.930Z,2.52
2022-12-01T16:15:48.487Z,2.41
2022-12-01T16:18:59.764Z,2.34
2022-12-01T16:22:11.668Z,2.37
2022-12-01T16:25:27.761Z,2.30
2022-12-01T16:28:36.018Z,2.28
2022-12-01T16:31:58.700Z,2.21
2022-12-01T16:35:04.335Z,2.23
2022-12-01T16:38:16.415Z,2.18
2022-12-01T16:41:37.921Z,2.30
2022-12-01T16:44:42.755Z,2.31
2022-12-01T16:47:47.254Z,2.25
2022-12-01T16:50:51.857Z,2.26
2022-12-01T16:53:56.330Z,2.38
2022-12-01T16:56:59.146Z,2.38
2022-12-01T17:00:01.817Z,2.36
2022-12-01T17:03:05.204Z,2.39
2022-12-01T17:06:08.014Z,2.40
2022-12-01T17:09:10.732Z,2.42
2022-12-01T17:12:13.442Z,2.24
2022-12-01T17:15:17.146Z,2.15
2022-12-01T17:18:21.715Z,2.09
2022-12-01T17:21:24.311Z,2.01
2022-12-01T17:24:26.769Z,1.93
2022-12-01T17:27:30.025Z,1.90
2022-12-01T17:30:32.571Z,2.09
2022-12-01T17:33:36.508Z,1.99
2022-12-01T17:36:39.276Z,2.13
2022-12-01T17:39:43.317Z,2.05
2022-12-01T17:42:50.416Z,1.97
2022-12-01T17:45:53.349Z,1.87
2022-12-01T17:48:56.232Z,1.85
2022-12-01T17:51:58.791Z,1.84
2022-12-01T17:55:01.709Z,1.83
2022-12-01T17:58:04.388Z,1.74
2022-12-01T18:01:13.748Z,1.64
2022-12-01T18:04:17.231Z,1.52
2022-12-01T18:07:20.331Z,1.38
2022-12-01T18:10:22.923Z,1.28
2022-12-01T18:13:25.327Z,1.30
2022-12-01T18:16:30.935Z,1.33
2022-12-01T18:19:33.815Z,1.28
2022-12-01T18:22:36.672Z,1.20
2022-12-01T18:25:40.593Z,1.10
2022-12-01T18:28:43.848Z,1.05
2022-12-01T18:31:47.324Z,0.94
2022-12-01T18:34:50.681Z,0.98
2022-12-01T18:37:54.077Z,0.95
2022-12-01T18:41:01.356Z,0.80
2022-12-01T18:44:04.569Z,0.79
2022-12-01T18:47:07.543Z,0.85
2022-12-01T18:50:11.946Z,0.96
2022-12-01T18:53:15.532Z,0.91
2022-12-01T18:56:19.820Z,1.05
2022-12-01T18:59:22.407Z,0.95
2022-12-01T19:02:26.537Z,1.10
2022-12-01T19:05:30.859Z,1.07
2022-12-01T19:08:34.388Z,1.00
2022-12-01T19:11:38.281Z,0.97
2022-12-01T19:14:41.322Z,1.03
2022-12-01T19:17:44.122Z,0.99
2022-12-01T19:20:46.815Z,1.06
2022-12-01T19:23:49.923Z,0.98
2022-12-01T19:26:52.629Z,1.10
2022-12-01T19:29:55.441Z,1.03
2022-12-01T19:32:58.333Z,1.11
2022-12-01T19:36:09.387Z,1.10
2022-12-01T19:39:12.103Z,1.07
2022-12-01T19:42:14.861Z,1.01
2022-12-01T19:45:17.737Z,0.94
2022-12-01T19:48:20.295Z,0.93
2022-12-01T19:51:26.801Z,0.91
2022-12-01T19:54:31.930Z,0.92
2022-12-01T19:57:34.944Z,1.01
2022-12-01T20:00:38.026Z,0.90
2022-12-01T20:03:41.978Z,0.68
2022-12-01T20:06:44.830Z,0.62
2022-12-01T20:09:51.950Z,0.57
2022-12-01T20:12:56.154Z,0.62
2022-12-01T20:16:03.232Z,0.66
2022-12-01T20:19:06.904Z,0.64
2022-12-01T20:22:09.825Z,0.59
2022-12-01T20:25:12.644Z,0.56
2022-12-01T20:28:15.307Z,0.65
2022-12-01T20:31:21.494Z,0.88
2022-12-01T20:34:28.157Z,0.99
2022-12-01T20:37:31.262Z,0.98
2022-12-01T20:40:34.165Z,0.89
2022-12-01T20:43:37.338Z,0.90
2022-12-01T20:46:45.870Z,0.73
2022-12-01T20:49:49.009Z,0.77
2022-12-01T20:52:51.780Z,0.75
2022-12-01T20:55:55.672Z,0.79
2022-12-01T20:58:58.887Z,0.85
2022-12-01T21:02:01.696Z,0.81
2022-12-01T21:05:04.912Z,0.77
2022-12-01T21:08:10.450Z,0.54
2022-12-01T21:11:45.080Z,0.60
2022-12-01T21:15:01.707Z,0.41
2022-12-01T21:18:12.455Z,0.21
2022-12-01T21:21:23.624Z,0.08
2022-12-01T21:24:33.508Z,-0.03
2022-12-01T21:27:37.461Z,-0.08
2022-12-01T21:30:41.178Z,-0.09
2022-12-01T21:33:43.828Z,-0.14
2022-12-01T21:36:48.097Z,-0.18
2022-12-01T21:39:52.656Z,-0.21
2022-12-01T21:43:00.177Z,-0.24
2022-12-01T21:46:13.747Z,-0.26
2022-12-01T21:49:20.411Z,-0.29
2022-12-01T21:52:34.645Z,-0.32
2022-12-01T21:55:39.004Z,-0.29
2022-12-01T21:58:41.608Z,-0.21
2022-12-01T22:01:44.092Z,-0.27
2022-12-01T22:04:46.891Z,-0.30
2022-12-01T22:07:49.530Z,-0.27
2022-12-01T22:11:02.754Z,-0.32
2022-12-01T22:14:17.187Z,-0.21
2022-12-01T22:17:21.180Z,-0.19
2022-12-01T22:20:23.689Z,-0.10
2022-12-01T22:23:33.945Z,-0.02
2022-12-01T22:26:39.661Z,-0.10
2022-12-01T22:29:44.871Z,-0.10
2022-12-01T22:33:03.689Z,-0.08
2022-12-01T22:36:21.801Z,-0.09
2022-12-01T22:39:34.139Z,-0.20
2022-12-01T22:42:37.487Z,-0.15
2022-12-01T22:45:39.904Z,-0.20
2022-12-01T22:48:45.860Z,-0.24
2022-12-01T22:51:56.244Z,-0.27
2022-12-01T22:54:58.820Z,-0.26
2022-12-01T22:58:09.823Z,-0.36
2022-12-01T23:01:24.959Z,-0.46
2022-12-01T23:04:40.223Z,-0.58
2022-12-01T23:07:43.253Z,-0.59
2022-12-01T23:10:46.151Z,-0.49
2022-12-01T23:13:48.580Z,-0.64
2022-12-01T23:17:06.647Z,-0.63
2022-12-01T23:20:34.489Z,-0.30
2022-12-01T23:23:37.674Z,-0.13
2022-12-01T23:26:40.133Z,-0.06
2022-12-01T23:29:42.604Z,-0.11
2022-12-01T23:32:48.003Z,-0.10
2022-12-01T23:36:00.180Z,-0.01
2022-12-01T23:39:06.984Z,0.04
2022-12-01T23:42:11.691Z,0.21
2022-12-01T23:45:21.631Z,0.23
2022-12-01T23:48:31.979Z,0.23
2022-12-01T23:51:40.187Z,0.25
2022-12-01T23:54:42.793Z,0.23
2022-12-01T23:57:45.255Z,0.17
